Alexandria/Esler Regional Airport

Airport
ICAO code: 
KESF
IATA Code: 
ESF
Summary
ICAO Region: 
NAM
Territory: 
Location: 
Alexandria, Rapides Parish, Louisiana
Serving: 
Alexandria
Elevation: 
112 ft
Coordinates: 
Aerial View: 
31° 23' 41.651" N, 92° 17' 44.779" W
Metar
Observation
KESF 271153Z AUTO 00000KT 10SM CLR M01/M01 A3017 RMK AO2 SLP216 I6001 T10061011 10017 21006 51004
Station
Alexandria, Alexandria Esler Regional Airport
Date/Time
2021-11-27 11:53:00
Wind direction
Wind speed
00 kts
Lowest cloud amount
n/a
Temperature
-0.6°C
Dew point
-1.1°C
Humidity
96%
Weather condition
n/a

Description

Esler Regional Airport is a Louisiana Army National Guard Airfield with limited public use and is located 10 nm northeast of the central business district of Alexandria, a city in Rapides Parish, Louisiana, United States.

Climatology

Humid “subtropical” climate (Köppen climate classification Cfa) - characterized by hot, humid summers and cool winters. Significant amounts of precipitation occur in all seasons in most areas. Winter rainfall (and sometimes snowfall) is associated with large storms that the westerlies steer from west to east. Most summer rainfall occurs during thunderstorms and occasional tropical storms (hurricanes).

Runways

Designator Length Width Surface Rops
14/32 1707 46 ASP Yes/Yes
8/26 1828 46 ASP Yes/Yes
Airport map: 
Aerial View: 

SKYbrary Partners:

Safety knowledge contributed by: